createdAt,value
2022-10-22T00:01:46.403Z,10.80
2022-10-22T00:04:14.888Z,10.90
2022-10-22T00:06:45.313Z,10.90
2022-10-22T00:09:14.664Z,10.90
2022-10-22T00:11:44.104Z,10.90
2022-10-22T00:14:13.914Z,10.90
2022-10-22T00:16:42.394Z,10.90
2022-10-22T00:19:13.617Z,10.90
2022-10-22T00:21:42.251Z,10.80
2022-10-22T00:24:10.970Z,10.80
2022-10-22T00:26:40.396Z,10.70
2022-10-22T00:29:08.906Z,10.60
2022-10-22T00:31:37.445Z,10.60
2022-10-22T00:34:06.195Z,10.50
2022-10-22T00:36:36.190Z,10.60
2022-10-22T00:39:04.908Z,10.60
2022-10-22T00:41:33.428Z,10.60
2022-10-22T00:44:04.985Z,10.70
2022-10-22T00:46:33.921Z,10.70
2022-10-22T00:49:06.206Z,10.70
2022-10-22T00:51:37.305Z,10.70
2022-10-22T00:54:10.309Z,10.60
2022-10-22T00:56:39.649Z,10.60
2022-10-22T01:01:42.210Z,10.60
2022-10-22T01:04:11.009Z,10.70
2022-10-22T01:06:41.162Z,10.70
2022-10-22T01:09:21.979Z,10.70
2022-10-22T01:12:03.410Z,10.70
2022-10-22T01:14:45.170Z,10.80
2022-10-22T01:17:25.115Z,10.70
2022-10-22T01:20:09.940Z,10.80
2022-10-22T01:22:45.458Z,10.80
2022-10-22T01:25:20.039Z,10.70
2022-10-22T01:28:04.005Z,10.80
2022-10-22T01:30:35.323Z,10.80
2022-10-22T01:33:08.354Z,10.80
2022-10-22T01:35:43.816Z,10.80
2022-10-22T01:38:17.185Z,10.80
2022-10-22T01:40:47.597Z,10.80
2022-10-22T01:43:16.783Z,10.70
2022-10-22T01:45:53.512Z,10.70
2022-10-22T01:48:44.066Z,10.70
2022-10-22T01:51:34.394Z,10.70
2022-10-22T01:54:13.374Z,10.70
2022-10-22T01:56:58.809Z,10.70
2022-10-22T01:59:45.131Z,10.70
2022-10-22T02:02:37.838Z,10.80
2022-10-22T02:05:14.252Z,10.80
2022-10-22T02:07:51.007Z,10.80
2022-10-22T02:10:21.211Z,10.80
2022-10-22T02:12:55.333Z,10.80
2022-10-22T02:15:27.945Z,10.80
2022-10-22T02:18:01.236Z,10.80
2022-10-22T02:20:34.311Z,10.70
2022-10-22T02:23:04.464Z,10.70
2022-10-22T02:25:37.798Z,10.80
2022-10-22T02:28:14.650Z,10.80
2022-10-22T02:30:50.105Z,10.80
2022-10-22T02:33:25.695Z,10.80
2022-10-22T02:35:56.601Z,10.80
2022-10-22T02:38:27.996Z,10.70
2022-10-22T02:40:56.966Z,10.80
2022-10-22T02:43:26.722Z,10.80
2022-10-22T02:45:55.396Z,10.80
2022-10-22T02:48:25.787Z,10.80
2022-10-22T02:50:54.243Z,10.80
2022-10-22T02:53:22.714Z,10.70
2022-10-22T02:55:51.177Z,10.80
2022-10-22T02:58:20.115Z,10.70
2022-10-22T03:00:49.777Z,10.70
2022-10-22T03:03:18.340Z,10.70
2022-10-22T03:05:48.196Z,10.70
2022-10-22T03:08:16.683Z,10.70
2022-10-22T03:10:45.786Z,10.70
2022-10-22T03:13:15.003Z,10.80
2022-10-22T03:15:43.471Z,10.80
2022-10-22T03:18:12.137Z,10.80
2022-10-22T03:20:40.591Z,10.80
2022-10-22T03:23:11.648Z,10.70
2022-10-22T03:25:44.649Z,10.70
2022-10-22T03:28:18.639Z,10.70
2022-10-22T03:30:47.093Z,10.70
2022-10-22T03:33:15.537Z,10.80
2022-10-22T03:35:48.435Z,10.80
2022-10-22T03:38:18.489Z,10.80
2022-10-22T03:40:48.728Z,10.80
2022-10-22T03:43:18.102Z,10.70
2022-10-22T03:45:46.647Z,10.80
2022-10-22T03:48:15.713Z,10.80
2022-10-22T03:50:44.178Z,10.80
2022-10-22T03:53:13.147Z,10.80
2022-10-22T03:55:44.117Z,10.80
2022-10-22T03:58:12.604Z,10.80
2022-10-22T04:00:41.120Z,10.80
2022-10-22T04:03:09.808Z,10.90
2022-10-22T04:05:38.273Z,10.90
2022-10-22T04:08:06.858Z,10.90
2022-10-22T04:10:35.635Z,10.90
2022-10-22T04:13:05.514Z,10.90
2022-10-22T04:15:34.258Z,10.90
2022-10-22T04:18:02.806Z,10.80
2022-10-22T04:20:31.297Z,10.70
2022-10-22T04:22:59.781Z,10.60
2022-10-22T04:25:28.349Z,10.60
2022-10-22T04:27:57.035Z,10.60
2022-10-22T04:30:26.874Z,10.70
2022-10-22T04:32:55.338Z,10.60
2022-10-22T04:37:52.257Z,10.70
2022-10-22T04:40:20.906Z,10.70
2022-10-22T04:42:49.473Z,10.80
2022-10-22T04:45:18.376Z,10.90
2022-10-22T04:47:48.435Z,10.90
2022-10-22T04:50:17.401Z,10.90
2022-10-22T04:52:45.939Z,10.90
2022-10-22T04:55:14.482Z,10.90
2022-10-22T04:57:43.203Z,10.90
2022-10-22T05:00:13.338Z,10.90
2022-10-22T05:02:44.933Z,10.90
2022-10-22T05:05:14.746Z,10.90
2022-10-22T05:07:43.453Z,10.90
2022-10-22T05:10:12.132Z,11.00
2022-10-22T05:12:40.593Z,10.90
2022-10-22T05:15:10.776Z,10.90
2022-10-22T05:17:39.836Z,11.00
2022-10-22T05:20:10.331Z,11.00
2022-10-22T05:22:40.408Z,11.00
2022-10-22T05:25:09.944Z,11.00
2022-10-22T05:27:38.556Z,11.00
2022-10-22T05:30:08.608Z,11.00
2022-10-22T05:32:37.316Z,11.00
2022-10-22T05:35:06.710Z,11.00
2022-10-22T05:37:35.233Z,11.10
2022-10-22T05:40:19.515Z,11.00
2022-10-22T05:42:55.223Z,11.00
2022-10-22T05:45:23.895Z,11.10
2022-10-22T05:47:52.388Z,11.10
2022-10-22T05:50:20.853Z,11.10
2022-10-22T05:52:49.304Z,11.10
2022-10-22T05:55:20.151Z,11.10
2022-10-22T05:57:50.350Z,11.10
2022-10-22T06:00:20.178Z,11.20
2022-10-22T06:02:52.450Z,11.20
2022-10-22T06:05:22.116Z,11.20
2022-10-22T06:07:51.211Z,11.20
2022-10-22T06:10:23.946Z,11.20
2022-10-22T06:12:52.478Z,11.10
2022-10-22T06:15:21.359Z,11.10
2022-10-22T06:17:50.104Z,11.10
2022-10-22T06:20:19.013Z,11.10
2022-10-22T06:22:48.588Z,11.00
2022-10-22T06:25:17.304Z,10.90
2022-10-22T06:27:51.953Z,10.90
2022-10-22T06:30:20.404Z,10.90
2022-10-22T06:32:48.857Z,11.00
2022-10-22T06:35:17.508Z,11.00
2022-10-22T06:37:47.476Z,11.10
2022-10-22T06:40:16.709Z,11.10
2022-10-22T06:42:46.563Z,11.10
2022-10-22T06:45:15.845Z,11.20
2022-10-22T06:47:44.354Z,11.20
2022-10-22T06:50:12.833Z,11.20
2022-10-22T06:52:41.316Z,11.10
2022-10-22T06:55:11.234Z,11.20
2022-10-22T06:57:40.386Z,11.20
2022-10-22T07:00:12.421Z,11.20
2022-10-22T07:02:41.488Z,11.20
2022-10-22T07:05:11.105Z,11.30
2022-10-22T07:07:39.605Z,11.30
2022-10-22T07:10:09.968Z,11.30
2022-10-22T07:12:38.741Z,11.40
2022-10-22T07:15:10.488Z,11.40
2022-10-22T07:20:10.235Z,11.50
2022-10-22T07:22:38.951Z,11.50
2022-10-22T07:25:08.150Z,11.50
2022-10-22T07:27:36.655Z,11.50
2022-10-22T07:30:06.729Z,11.40
2022-10-22T07:32:37.377Z,11.30
2022-10-22T07:35:07.548Z,11.20
2022-10-22T07:37:36.096Z,11.10
2022-10-22T07:40:05.027Z,11.10
2022-10-22T07:42:33.550Z,11.00
2022-10-22T07:45:02.270Z,11.00
2022-10-22T07:47:30.753Z,11.00
2022-10-22T07:50:00.630Z,11.00
2022-10-22T07:52:29.642Z,11.00
2022-10-22T07:54:58.140Z,11.10
2022-10-22T07:57:26.734Z,11.10
2022-10-22T07:59:56.559Z,11.10
2022-10-22T08:02:25.125Z,11.20
2022-10-22T08:04:53.805Z,11.30
2022-10-22T08:07:23.820Z,11.50
2022-10-22T08:09:52.341Z,11.70
2022-10-22T08:12:21.998Z,11.80
2022-10-22T08:14:50.474Z,11.90
2022-10-22T08:17:18.991Z,12.00
2022-10-22T08:19:47.444Z,12.00
2022-10-22T08:22:16.080Z,12.10
2022-10-22T08:24:46.768Z,12.20
2022-10-22T08:27:15.385Z,12.30
2022-10-22T08:29:44.148Z,12.40
2022-10-22T08:32:13.081Z,12.50
2022-10-22T08:34:41.776Z,12.60
2022-10-22T08:37:14.284Z,12.60
2022-10-22T08:39:42.849Z,12.70
2022-10-22T08:42:55.065Z,12.70
2022-10-22T08:45:31.351Z,12.80
2022-10-22T08:48:29.338Z,12.80
2022-10-22T08:50:59.489Z,12.90
2022-10-22T08:53:41.071Z,12.90
2022-10-22T08:56:09.673Z,13.00
2022-10-22T08:58:51.055Z,13.00
2022-10-22T09:01:24.166Z,13.00
2022-10-22T09:03:59.538Z,13.00
2022-10-22T09:06:31.570Z,13.00
2022-10-22T09:09:02.624Z,13.10
2022-10-22T09:11:35.911Z,13.20
2022-10-22T09:14:07.334Z,13.20
2022-10-22T09:16:44.348Z,13.40
2022-10-22T09:19:28.154Z,13.40
2022-10-22T09:22:04.439Z,13.50
2022-10-22T09:24:39.476Z,13.60
2022-10-22T09:27:14.716Z,13.70
2022-10-22T09:29:46.906Z,13.90
2022-10-22T09:32:15.917Z,14.00
2022-10-22T09:34:47.074Z,14.10
2022-10-22T09:37:20.529Z,14.10
2022-10-22T09:39:53.546Z,14.20
2022-10-22T09:42:24.013Z,14.30
2022-10-22T09:44:58.676Z,14.30
2022-10-22T09:48:02.598Z,14.20
2022-10-22T09:50:38.168Z,14.20
2022-10-22T09:53:15.195Z,14.10
2022-10-22T09:55:45.671Z,14.20
2022-10-22T09:58:15.776Z,14.30
2022-10-22T10:00:52.730Z,14.60
2022-10-22T10:03:25.541Z,14.60
2022-10-22T10:06:00.060Z,14.70
2022-10-22T10:08:31.786Z,14.80
2022-10-22T10:11:07.525Z,14.90
2022-10-22T10:13:53.593Z,15.10
2022-10-22T10:16:42.785Z,15.20
2022-10-22T10:19:34.974Z,15.40
2022-10-22T10:22:17.627Z,15.60
2022-10-22T10:25:05.044Z,15.70
2022-10-22T10:27:42.081Z,15.80
2022-10-22T10:30:16.671Z,15.80
2022-10-22T10:33:21.095Z,15.90
2022-10-22T10:36:02.245Z,15.80
2022-10-22T10:38:43.952Z,15.80
2022-10-22T10:41:25.615Z,15.80
2022-10-22T10:44:17.082Z,15.90
2022-10-22T10:47:00.783Z,15.90
2022-10-22T10:49:36.205Z,16.00
2022-10-22T10:52:21.219Z,16.10
2022-10-22T10:55:11.615Z,16.20
2022-10-22T10:57:57.026Z,16.30
2022-10-22T11:00:26.462Z,16.10
2022-10-22T11:03:41.697Z,16.20
2022-10-22T11:06:16.510Z,16.30
2022-10-22T11:08:54.823Z,16.00
2022-10-22T11:11:34.381Z,16.00
2022-10-22T11:14:12.631Z,15.80
2022-10-22T11:16:48.192Z,15.60
2022-10-22T11:19:46.036Z,15.60
2022-10-22T11:22:27.171Z,15.80
2022-10-22T11:25:04.170Z,15.70
2022-10-22T11:27:40.896Z,15.70
2022-10-22T11:30:17.633Z,15.70
2022-10-22T11:32:52.844Z,15.90
2022-10-22T11:35:27.306Z,16.20
2022-10-22T11:37:58.962Z,16.40
2022-10-22T11:40:38.426Z,16.60
2022-10-22T11:43:10.632Z,16.70
2022-10-22T11:45:41.953Z,16.80
2022-10-22T11:48:20.064Z,17.00
2022-10-22T11:50:53.073Z,17.00
2022-10-22T11:53:34.162Z,17.00
2022-10-22T11:56:24.358Z,17.10
2022-10-22T11:58:55.081Z,17.10
2022-10-22T12:01:40.745Z,17.20
2022-10-22T12:04:23.345Z,17.20
2022-10-22T12:07:00.260Z,17.20
2022-10-22T12:09:34.452Z,17.20
2022-10-22T12:12:15.881Z,17.20
2022-10-22T12:14:58.181Z,17.30
2022-10-22T12:17:29.695Z,17.40
2022-10-22T12:20:04.405Z,17.30
2022-10-22T12:22:37.243Z,17.30
2022-10-22T12:25:22.455Z,17.40
2022-10-22T12:27:55.062Z,17.40
2022-10-22T12:30:27.130Z,17.20
2022-10-22T12:33:00.352Z,17.10
2022-10-22T12:35:31.785Z,17.10
2022-10-22T12:38:06.328Z,17.10
2022-10-22T12:40:37.409Z,17.10
2022-10-22T12:43:14.090Z,17.10
2022-10-22T12:45:46.639Z,17.10
2022-10-22T12:48:22.966Z,17.20
2022-10-22T12:50:55.203Z,17.10
2022-10-22T12:53:30.595Z,17.20
2022-10-22T12:56:05.595Z,17.30
2022-10-22T12:58:40.802Z,17.20
2022-10-22T13:01:12.858Z,17.10
2022-10-22T13:03:45.835Z,17.10
2022-10-22T13:06:24.074Z,17.10
2022-10-22T13:09:14.275Z,17.00
2022-10-22T13:11:53.038Z,16.90
2022-10-22T13:14:29.472Z,16.90
2022-10-22T13:17:12.197Z,16.90
2022-10-22T13:20:05.342Z,16.80
2022-10-22T13:22:36.386Z,16.90
2022-10-22T13:25:24.429Z,16.70
2022-10-22T13:27:59.930Z,16.70
2022-10-22T13:30:32.905Z,16.70
2022-10-22T13:33:04.834Z,16.70
2022-10-22T13:35:37.387Z,16.70
2022-10-22T13:38:14.335Z,16.70
2022-10-22T13:40:42.772Z,16.70
2022-10-22T13:43:12.646Z,16.60
2022-10-22T13:45:41.532Z,16.60
2022-10-22T13:48:17.508Z,16.50
2022-10-22T13:50:46.042Z,16.50
2022-10-22T13:53:19.215Z,16.50
2022-10-22T13:55:47.811Z,16.50
2022-10-22T13:58:24.122Z,16.50
2022-10-22T14:00:55.798Z,16.40
2022-10-22T14:03:30.419Z,16.40
2022-10-22T14:05:59.166Z,16.30
2022-10-22T14:08:29.546Z,16.30
2022-10-22T14:10:58.255Z,16.40
2022-10-22T14:13:28.169Z,16.30
2022-10-22T14:15:56.869Z,16.20
2022-10-22T14:18:31.606Z,16.20
2022-10-22T14:21:04.883Z,16.20
2022-10-22T14:23:34.967Z,16.20
2022-10-22T14:26:07.269Z,16.20
2022-10-22T14:28:46.229Z,16.10
2022-10-22T14:31:26.469Z,16.20
2022-10-22T14:33:55.570Z,16.30
2022-10-22T14:36:24.514Z,16.20
2022-10-22T14:38:52.953Z,16.10
2022-10-22T14:41:24.238Z,16.10
2022-10-22T14:43:55.460Z,16.10
2022-10-22T14:46:24.403Z,16.00
2022-10-22T14:48:52.894Z,15.80
2022-10-22T14:51:23.162Z,15.80
2022-10-22T14:53:51.794Z,15.80
2022-10-22T14:56:22.398Z,15.80
2022-10-22T14:58:51.797Z,15.70
2022-10-22T15:01:21.676Z,15.70
2022-10-22T15:03:50.425Z,15.70
2022-10-22T15:06:18.996Z,15.60
2022-10-22T15:08:47.796Z,15.50
2022-10-22T15:11:16.316Z,15.40
2022-10-22T15:13:44.993Z,15.20
2022-10-22T15:16:16.916Z,15.20
2022-10-22T15:18:46.922Z,15.00
2022-10-22T15:21:18.408Z,15.10
2022-10-22T15:23:46.956Z,15.00
2022-10-22T15:26:16.613Z,14.90
2022-10-22T15:28:45.726Z,14.80
2022-10-22T15:31:15.947Z,14.70
2022-10-22T15:33:46.537Z,14.70
2022-10-22T15:36:18.064Z,14.60
2022-10-22T15:38:46.968Z,14.50
2022-10-22T15:41:15.464Z,14.40
2022-10-22T15:43:44.041Z,14.40
2022-10-22T15:46:16.316Z,14.20
2022-10-22T15:48:46.836Z,14.00
2022-10-22T15:51:18.401Z,14.00
2022-10-22T15:53:53.823Z,14.00
2022-10-22T15:56:24.131Z,13.70
2022-10-22T15:58:55.507Z,13.60
2022-10-22T16:01:24.681Z,13.50
2022-10-22T16:04:00.285Z,13.40
2022-10-22T16:06:30.182Z,13.30
2022-10-22T16:09:01.217Z,13.20
2022-10-22T16:11:30.930Z,13.10
2022-10-22T16:14:01.407Z,13.10
2022-10-22T16:16:33.659Z,13.00
2022-10-22T16:19:04.884Z,12.80
2022-10-22T16:21:33.340Z,12.60
2022-10-22T16:24:06.124Z,12.50
2022-10-22T16:26:36.035Z,12.30
2022-10-22T16:29:05.729Z,12.20
2022-10-22T16:31:34.397Z,12.10
2022-10-22T16:34:04.280Z,12.00
2022-10-22T16:36:33.206Z,11.90
2022-10-22T16:39:01.942Z,11.70
2022-10-22T16:41:35.497Z,11.60
2022-10-22T16:44:08.065Z,11.50
2022-10-22T16:46:39.289Z,11.40
2022-10-22T16:49:09.399Z,11.20
2022-10-22T16:51:38.431Z,11.10
2022-10-22T16:54:09.857Z,11.00
2022-10-22T16:56:41.175Z,11.00
2022-10-22T16:59:10.670Z,10.90
2022-10-22T17:01:41.109Z,10.80
2022-10-22T17:04:11.788Z,10.70
2022-10-22T17:06:41.026Z,10.60
2022-10-22T17:09:10.909Z,10.50
2022-10-22T17:11:42.709Z,10.40
2022-10-22T17:14:14.588Z,10.40
2022-10-22T17:16:43.435Z,10.30
2022-10-22T17:19:16.069Z,10.30
2022-10-22T17:21:44.842Z,10.20
2022-10-22T17:24:13.551Z,10.10
2022-10-22T17:26:42.262Z,10.00
2022-10-22T17:29:10.778Z,10.00
2022-10-22T17:31:41.234Z,9.90
2022-10-22T17:34:18.211Z,9.90
2022-10-22T17:36:46.980Z,9.80
2022-10-22T17:39:19.145Z,9.70
2022-10-22T17:41:47.867Z,9.60
2022-10-22T17:44:17.885Z,9.60
2022-10-22T17:46:47.261Z,9.60
2022-10-22T17:49:20.551Z,9.50
2022-10-22T17:51:49.472Z,9.50
2022-10-22T17:54:18.623Z,9.60
2022-10-22T17:56:47.206Z,9.50
2022-10-22T17:59:18.145Z,9.50
2022-10-22T18:01:47.772Z,9.40
2022-10-22T18:04:21.206Z,9.40
2022-10-22T18:06:50.282Z,9.40
2022-10-22T18:09:20.442Z,9.30
2022-10-22T18:11:51.424Z,9.30
2022-10-22T18:14:22.273Z,9.30
2022-10-22T18:16:52.124Z,9.30
2022-10-22T18:19:24.700Z,9.20
2022-10-22T18:21:53.432Z,9.20
2022-10-22T18:24:21.944Z,9.20
2022-10-22T18:26:50.513Z,9.20
2022-10-22T18:29:20.902Z,9.10
2022-10-22T18:31:49.978Z,9.10
2022-10-22T18:34:21.676Z,9.10
2022-10-22T18:36:53.779Z,9.10
2022-10-22T18:39:22.448Z,9.10
2022-10-22T18:41:51.317Z,9.10
2022-10-22T18:44:19.930Z,9.00
2022-10-22T18:46:48.407Z,9.00
2022-10-22T18:49:20.381Z,9.00
2022-10-22T18:51:53.076Z,9.00
2022-10-22T18:54:24.725Z,8.90
2022-10-22T18:56:56.251Z,8.80
2022-10-22T18:59:28.346Z,8.60
2022-10-22T19:01:59.593Z,8.60
2022-10-22T19:04:33.330Z,8.50
2022-10-22T19:07:01.944Z,8.60
2022-10-22T19:09:32.353Z,8.50
2022-10-22T19:12:01.359Z,8.50
2022-10-22T19:14:30.142Z,8.50
2022-10-22T19:16:58.600Z,8.50
2022-10-22T19:19:27.287Z,8.50
2022-10-22T19:21:59.724Z,8.60
2022-10-22T19:24:28.391Z,8.70
2022-10-22T19:26:58.293Z,8.70
2022-10-22T19:29:26.827Z,8.70
2022-10-22T19:31:55.579Z,8.70
2022-10-22T19:34:24.215Z,8.70
2022-10-22T19:36:52.817Z,8.70
2022-10-22T19:39:21.610Z,8.80
2022-10-22T19:41:50.214Z,8.80
2022-10-22T19:44:20.640Z,8.80
2022-10-22T19:46:49.138Z,8.80
2022-10-22T19:49:21.859Z,8.70
2022-10-22T19:51:51.398Z,8.70
2022-10-22T19:54:20.759Z,8.70
2022-10-22T19:56:49.913Z,8.70
2022-10-22T19:59:23.004Z,8.60
2022-10-22T20:01:51.812Z,8.60
2022-10-22T20:04:20.862Z,8.60
2022-10-22T20:06:49.339Z,8.50
2022-10-22T20:09:18.189Z,8.50
2022-10-22T20:11:46.843Z,8.50
2022-10-22T20:14:16.020Z,8.50
2022-10-22T20:16:46.405Z,8.40
2022-10-22T20:19:17.084Z,8.40
2022-10-22T20:21:48.518Z,8.40
2022-10-22T20:24:17.309Z,8.40
2022-10-22T20:26:47.389Z,8.30
2022-10-22T20:29:19.251Z,8.20
2022-10-22T20:31:49.448Z,8.20
2022-10-22T20:34:18.433Z,8.10
2022-10-22T20:36:47.159Z,8.00
2022-10-22T20:39:17.530Z,8.00
2022-10-22T20:41:46.301Z,8.10
2022-10-22T20:44:18.069Z,8.10
2022-10-22T20:46:48.416Z,8.20
2022-10-22T20:49:18.751Z,8.20
2022-10-22T20:51:47.821Z,8.20
2022-10-22T20:54:17.646Z,8.20
2022-10-22T20:56:48.161Z,8.20
2022-10-22T20:59:17.573Z,8.20
2022-10-22T21:01:51.650Z,8.10
2022-10-22T21:04:22.640Z,8.00
2022-10-22T21:06:52.467Z,7.90
2022-10-22T21:09:21.881Z,7.90
2022-10-22T21:11:50.553Z,7.90
2022-10-22T21:14:23.391Z,7.90
2022-10-22T21:16:53.728Z,7.90
2022-10-22T21:19:24.304Z,7.90
2022-10-22T21:21:53.135Z,8.00
2022-10-22T21:24:24.882Z,8.10
2022-10-22T21:26:54.293Z,8.20
2022-10-22T21:29:23.253Z,8.30
2022-10-22T21:31:54.083Z,8.30
2022-10-22T21:34:22.633Z,8.40
2022-10-22T21:36:51.440Z,8.40
2022-10-22T21:39:19.915Z,8.50
2022-10-22T21:41:48.393Z,8.50
2022-10-22T21:44:17.803Z,8.50
2022-10-22T21:46:46.262Z,8.50
2022-10-22T21:49:16.168Z,8.50
2022-10-22T21:51:45.210Z,8.50
2022-10-22T21:54:13.797Z,8.40
2022-10-22T21:56:42.806Z,8.40
2022-10-22T21:59:11.330Z,8.30
2022-10-22T22:01:39.852Z,8.20
2022-10-22T22:04:08.405Z,8.20
2022-10-22T22:06:38.421Z,8.10
2022-10-22T22:09:07.859Z,8.10
2022-10-22T22:11:36.791Z,7.90
2022-10-22T22:14:05.520Z,7.80
2022-10-22T22:16:35.580Z,7.80
2022-10-22T22:19:07.638Z,7.80
2022-10-22T22:21:40.124Z,7.70
2022-10-22T22:24:10.771Z,7.70
2022-10-22T22:26:40.534Z,7.70
2022-10-22T22:29:09.017Z,7.70
2022-10-22T22:31:38.440Z,7.70
2022-10-22T22:34:13.041Z,7.60
2022-10-22T22:36:45.501Z,7.60
2022-10-22T22:39:16.686Z,7.60
2022-10-22T22:41:46.516Z,7.80
2022-10-22T22:44:15.761Z,7.80
2022-10-22T22:46:44.562Z,7.80
2022-10-22T22:49:14.230Z,7.80
2022-10-22T22:51:44.642Z,7.80
2022-10-22T22:54:13.190Z,7.80
2022-10-22T22:56:41.921Z,7.70
2022-10-22T22:59:12.251Z,7.80
2022-10-22T23:01:41.214Z,7.80
2022-10-22T23:04:16.524Z,7.90
2022-10-22T23:06:47.277Z,7.80
2022-10-22T23:11:49.325Z,7.90
2022-10-22T23:14:20.605Z,7.90
2022-10-22T23:16:52.006Z,7.90
2022-10-22T23:19:24.007Z,7.90
2022-10-22T23:21:56.914Z,7.90
2022-10-22T23:24:28.571Z,7.90
2022-10-22T23:27:01.267Z,7.90
2022-10-22T23:29:32.583Z,7.90
2022-10-22T23:32:04.174Z,7.90
2022-10-22T23:34:33.444Z,7.90
2022-10-22T23:37:03.307Z,7.90
2022-10-22T23:39:32.209Z,8.00
2022-10-22T23:42:00.710Z,7.90
2022-10-22T23:44:29.460Z,7.80
2022-10-22T23:46:57.985Z,7.70
2022-10-22T23:49:26.522Z,7.70
2022-10-22T23:51:55.005Z,7.70
2022-10-22T23:54:24.889Z,7.70
2022-10-22T23:56:53.349Z,7.70
2022-10-22T23:59:22.855Z,7.80
